Time;durP1;ratioP1;P1;durP2;ratioP2;P2;SDS_P1;SDS_P2;PMS_P1;PMS_P2;Temp;Humidity;BMP_temperature;BMP_pressure;BME280_temperature;BME280_humidity;BME280_pressure;Samples;Min_cycle;Max_cycle;Signal;HPM_P1;HPM_P2
2024/01/18 00:01:14;;;;;;;13.13;9.60;;;;;;;;;;5052090;28;20943;-62
2024/01/18 00:03:40;;;;;;;15.43;10.83;;;;;;;;;;5051690;28;20901;-62
2024/01/18 00:06:05;;;;;;;15.23;10.80;;;;;;;;;;5051921;28;20409;-62
2024/01/18 00:08:30;;;;;;;15.95;10.68;;;;;;;;;;5052574;28;20905;-62
2024/01/18 00:10:56;;;;;;;16.03;10.47;;;;;;;;;;5051756;28;20760;-62
2024/01/18 00:13:21;;;;;;;14.93;10.93;;;;;;;;;;5034088;28;20397;-62
2024/01/18 00:15:46;;;;;;;18.00;11.70;;;;;;;;;;5052414;28;20397;-62
2024/01/18 00:18:12;;;;;;;14.85;10.98;;;;;;;;;;5050895;28;20943;-62
2024/01/18 00:20:37;;;;;;;16.77;10.83;;;;;;;;;;5034377;28;20413;-62
2024/01/18 00:23:02;;;;;;;15.70;10.53;;;;;;;;;;5051597;28;20429;-62
2024/01/18 00:25:27;;;;;;;16.17;11.13;;;;;;;;;;5051520;28;20472;-62
2024/01/18 00:27:53;;;;;;;15.10;11.23;;;;;;;;;;5051819;28;20413;-62
2024/01/18 00:30:18;;;;;;;15.27;10.53;;;;;;;;;;5051715;28;20404;-62
2024/01/18 00:32:44;;;;;;;15.47;10.33;;;;;;;;;;5051220;28;20479;-62
2024/01/18 00:35:09;;;;;;;15.15;10.63;;;;;;;;;;5051335;28;20484;-63
2024/01/18 00:37:34;;;;;;;15.47;10.30;;;;;;;;;;5050950;28;20788;-62
2024/01/18 00:40:00;;;;;;;15.93;10.30;;;;;;;;;;5051709;28;20464;-62
2024/01/18 00:42:25;;;;;;;15.88;11.05;;;;;;;;;;5051341;28;20396;-62
2024/01/18 00:44:50;;;;;;;15.37;10.53;;;;;;;;;;5051047;28;20484;-62
2024/01/18 00:47:15;;;;;;;14.83;9.90;;;;;;;;;;5051125;28;20417;-62
2024/01/18 00:49:42;;;;;;;14.63;9.80;;;;;;;;;;5051678;28;20401;-62
2024/01/18 00:52:08;;;;;;;15.95;10.85;;;;;;;;;;5050450;28;20764;-63
2024/01/18 00:54:33;;;;;;;14.73;9.70;;;;;;;;;;5051875;28;20924;-62
2024/01/18 00:56:58;;;;;;;14.00;9.27;;;;;;;;;;5051483;28;20443;-62
2024/01/18 00:59:24;;;;;;;12.53;9.30;;;;;;;;;;5050155;28;20381;-62
2024/01/18 01:01:50;;;;;;;13.27;8.77;;;;;;;;;;5051576;28;20477;-62
2024/01/18 01:04:15;;;;;;;11.90;7.73;;;;;;;;;;5050539;28;20497;-62
2024/01/18 01:06:40;;;;;;;12.45;8.00;;;;;;;;;;5050597;28;20401;-62
2024/01/18 01:09:06;;;;;;;11.47;8.30;;;;;;;;;;5050930;28;20484;-63
2024/01/18 01:11:31;;;;;;;12.23;7.97;;;;;;;;;;5051482;28;20753;-62
2024/01/18 01:13:56;;;;;;;12.27;7.63;;;;;;;;;;5050414;28;20531;-62
2024/01/18 01:16:22;;;;;;;12.07;7.70;;;;;;;;;;5050811;28;20377;-62
2024/01/18 01:18:47;;;;;;;10.63;7.10;;;;;;;;;;5051146;28;20394;-62
2024/01/18 01:21:12;;;;;;;11.68;7.00;;;;;;;;;;5049675;28;20394;-63
2024/01/18 01:23:41;;;;;;;11.10;6.93;;;;;;;;;;5051115;28;20498;-62
2024/01/18 01:26:08;;;;;;;11.85;6.72;;;;;;;;;;5033182;28;20780;-62
2024/01/18 01:28:33;;;;;;;10.27;6.23;;;;;;;;;;5050197;28;20402;-62
2024/01/18 01:30:59;;;;;;;11.53;6.67;;;;;;;;;;5051129;28;20405;-62
2024/01/18 01:33:24;;;;;;;12.67;6.27;;;;;;;;;;5050486;28;20487;-62
2024/01/18 01:35:49;;;;;;;9.00;5.90;;;;;;;;;;5050151;28;20390;-62
2024/01/18 01:38:15;;;;;;;12.88;6.53;;;;;;;;;;5050316;28;20950;-62
2024/01/18 01:40:40;;;;;;;11.37;5.90;;;;;;;;;;5051088;28;20469;-62
2024/01/18 01:43:05;;;;;;;10.43;6.03;;;;;;;;;;5031777;28;20417;-63
2024/01/18 01:45:31;;;;;;;10.23;6.07;;;;;;;;;;5050727;28;20401;-62
2024/01/18 01:47:56;;;;;;;9.97;5.77;;;;;;;;;;5049848;28;20429;-62
2024/01/18 01:50:22;;;;;;;10.83;5.83;;;;;;;;;;5032294;28;20837;-62
2024/01/18 01:52:47;;;;;;;10.80;5.80;;;;;;;;;;5050472;28;20484;-62
2024/01/18 01:55:13;;;;;;;11.50;5.90;;;;;;;;;;5049595;28;20956;-62
2024/01/18 01:57:38;;;;;;;11.10;5.82;;;;;;;;;;5033107;28;20401;-62
2024/01/18 02:00:04;;;;;;;9.90;5.47;;;;;;;;;;5050080;28;20405;-62
2024/01/18 02:02:29;;;;;;;10.17;5.40;;;;;;;;;;5032015;28;20884;-62
2024/01/18 02:04:55;;;;;;;10.07;5.13;;;;;;;;;;5050467;28;20403;-62
2024/01/18 02:07:20;;;;;;;10.00;5.37;;;;;;;;;;5032483;28;20472;-62
2024/01/18 02:09:46;;;;;;;10.20;5.00;;;;;;;;;;5049737;28;20478;-62
2024/01/18 02:12:11;;;;;;;9.13;4.78;;;;;;;;;;5032466;28;20884;-62
2024/01/18 02:14:36;;;;;;;9.40;4.93;;;;;;;;;;5032790;28;20393;-62
2024/01/18 02:17:03;;;;;;;10.93;4.97;;;;;;;;;;5049479;28;20397;-62
2024/01/18 02:19:29;;;;;;;9.38;4.63;;;;;;;;;;5050368;28;20861;-62
2024/01/18 02:21:54;;;;;;;10.90;5.20;;;;;;;;;;5050346;28;20417;-62
2024/01/18 02:24:20;;;;;;;9.43;4.30;;;;;;;;;;5049151;28;20464;-62
2024/01/18 02:26:45;;;;;;;7.82;4.35;;;;;;;;;;5050381;28;20490;-62
2024/01/18 02:29:11;;;;;;;9.43;4.60;;;;;;;;;;5049816;28;20381;-62
2024/01/18 02:31:36;;;;;;;8.30;4.17;;;;;;;;;;5049512;28;20404;-62
2024/01/18 02:34:03;;;;;;;7.78;4.10;;;;;;;;;;5049878;28;20488;-62
2024/01/18 02:36:28;;;;;;;9.57;4.38;;;;;;;;;;5032351;28;20412;-62
2024/01/18 02:38:54;;;;;;;8.47;3.47;;;;;;;;;;5049471;28;20409;-62
2024/01/18 02:41:19;;;;;;;10.70;3.80;;;;;;;;;;5049922;28;20401;-62
2024/01/18 02:43:44;;;;;;;7.70;3.80;;;;;;;;;;5037793;28;20426;-62
2024/01/18 02:46:10;;;;;;;8.47;3.67;;;;;;;;;;5020446;28;20408;-62
2024/01/18 02:48:35;;;;;;;7.37;3.40;;;;;;;;;;5026572;28;20399;-62
2024/01/18 02:51:01;;;;;;;7.55;3.50;;;;;;;;;;5017411;28;20411;-63
2024/01/18 02:53:26;;;;;;;7.47;3.43;;;;;;;;;;5012657;28;20399;-62
2024/01/18 02:55:51;;;;;;;7.10;3.23;;;;;;;;;;5012227;28;20403;-62
2024/01/18 02:58:17;;;;;;;9.37;3.30;;;;;;;;;;5012562;28;20462;-62
2024/01/18 03:00:42;;;;;;;6.67;3.00;;;;;;;;;;5020499;28;20430;-62
2024/01/18 03:03:07;;;;;;;8.50;3.40;;;;;;;;;;5021445;28;20795;-62
2024/01/18 03:05:33;;;;;;;7.78;3.60;;;;;;;;;;5042148;28;21365;-62
2024/01/18 03:07:58;;;;;;;7.37;3.13;;;;;;;;;;5025451;28;20401;-62
2024/01/18 03:10:23;;;;;;;9.52;3.03;;;;;;;;;;5042753;28;20373;-62
2024/01/18 03:12:49;;;;;;;7.43;3.30;;;;;;;;;;5042753;28;20401;-62
2024/01/18 03:15:14;;;;;;;7.90;3.47;;;;;;;;;;5035365;28;21542;-62
2024/01/18 03:17:39;;;;;;;8.10;3.27;;;;;;;;;;5027665;28;20640;-62
2024/01/18 03:20:07;;;;;;;8.68;3.33;;;;;;;;;;5014283;28;21014;-63
2024/01/18 03:22:33;;;;;;;7.53;3.35;;;;;;;;;;5041864;28;20746;-62
2024/01/18 03:24:59;;;;;;;8.13;3.40;;;;;;;;;;5042886;28;20757;-62
2024/01/18 03:27:24;;;;;;;6.40;3.07;;;;;;;;;;5041548;28;20405;-62
2024/01/18 03:29:49;;;;;;;7.23;3.30;;;;;;;;;;5042902;28;20397;-62
2024/01/18 03:32:14;;;;;;;6.87;3.10;;;;;;;;;;5042350;28;20904;-62
2024/01/18 03:34:40;;;;;;;5.88;2.92;;;;;;;;;;5041918;28;20408;-62
2024/01/18 03:37:05;;;;;;;8.07;3.20;;;;;;;;;;5027898;28;20525;-62
2024/01/18 03:39:34;;;;;;;7.53;3.23;;;;;;;;;;5014838;28;20418;-62
2024/01/18 03:41:59;;;;;;;7.75;3.00;;;;;;;;;;5033949;28;20844;-62
2024/01/18 03:44:24;;;;;;;6.70;2.60;;;;;;;;;;5034080;28;20471;-62
2024/01/18 03:46:50;;;;;;;8.67;2.80;;;;;;;;;;5027252;28;20489;-62
2024/01/18 03:49:15;;;;;;;7.13;2.73;;;;;;;;;;5048192;28;20893;-62
2024/01/18 03:51:40;;;;;;;6.33;3.10;;;;;;;;;;5046764;28;20391;-62
2024/01/18 03:54:06;;;;;;;5.88;2.97;;;;;;;;;;5032407;28;20403;-62
2024/01/18 03:56:31;;;;;;;6.50;2.77;;;;;;;;;;5032214;28;20878;-62
2024/01/18 03:58:57;;;;;;;5.73;2.40;;;;;;;;;;5032723;28;20410;-62
2024/01/18 04:01:22;;;;;;;8.05;2.80;;;;;;;;;;5039883;28;20916;-62
2024/01/18 04:03:48;;;;;;;6.90;2.60;;;;;;;;;;5051894;28;20740;-62
2024/01/18 04:06:14;;;;;;;6.80;2.80;;;;;;;;;;5051872;28;20405;-62
2024/01/18 04:08:39;;;;;;;6.00;2.70;;;;;;;;;;5051855;28;20413;-62
2024/01/18 04:11:04;;;;;;;7.23;2.80;;;;;;;;;;5051990;28;20392;-62
2024/01/18 04:13:29;;;;;;;7.37;2.60;;;;;;;;;;5052326;28;20397;-62
2024/01/18 04:15:55;;;;;;;6.83;2.67;;;;;;;;;;5051008;28;20480;-62
2024/01/18 04:18:20;;;;;;;7.70;2.80;;;;;;;;;;5051609;28;20464;-62
2024/01/18 04:20:45;;;;;;;5.70;2.67;;;;;;;;;;5052346;28;20455;-62
2024/01/18 04:23:10;;;;;;;6.33;2.40;;;;;;;;;;5050689;28;20405;-62
2024/01/18 04:25:36;;;;;;;5.13;2.40;;;;;;;;;;5034306;28;20397;-62
2024/01/18 04:28:01;;;;;;;5.93;2.10;;;;;;;;;;5051665;28;20454;-63
2024/01/18 04:30:28;;;;;;;6.35;2.35;;;;;;;;;;5025733;28;21453;-62
2024/01/18 04:32:53;;;;;;;6.03;2.37;;;;;;;;;;5022246;28;20509;-62
2024/01/18 04:35:19;;;;;;;6.20;2.50;;;;;;;;;;5021510;28;20403;-62
2024/01/18 04:37:44;;;;;;;7.13;2.55;;;;;;;;;;5022318;28;20402;-62
2024/01/18 04:40:09;;;;;;;7.03;2.20;;;;;;;;;;5021543;28;20879;-62
2024/01/18 04:42:35;;;;;;;6.93;2.57;;;;;;;;;;5016546;28;20468;-62
2024/01/18 04:45:01;;;;;;;5.33;2.20;;;;;;;;;;5012650;28;20429;-62
2024/01/18 04:47:26;;;;;;;4.67;2.00;;;;;;;;;;5016531;28;20391;-62
2024/01/18 04:49:51;;;;;;;6.07;2.13;;;;;;;;;;5019368;28;20402;-62
2024/01/18 04:52:17;;;;;;;6.17;2.00;;;;;;;;;;5029164;28;20805;-62
2024/01/18 04:54:42;;;;;;;5.80;2.00;;;;;;;;;;5021654;28;20944;-62
2024/01/18 04:57:07;;;;;;;6.60;2.10;;;;;;;;;;5021312;28;20902;-62
2024/01/18 04:59:33;;;;;;;5.87;2.07;;;;;;;;;;5020764;28;20422;-62
2024/01/18 05:01:58;;;;;;;6.60;2.20;;;;;;;;;;5021830;28;20403;-62
2024/01/18 05:04:24;;;;;;;6.43;2.10;;;;;;;;;;5021751;28;20624;-62
2024/01/18 05:06:49;;;;;;;4.30;1.80;;;;;;;;;;5012506;28;20418;-62
2024/01/18 05:09:16;;;;;;;4.30;1.90;;;;;;;;;;5012857;28;21100;-62
2024/01/18 05:11:42;;;;;;;4.82;1.90;;;;;;;;;;5034992;28;20428;-62
2024/01/18 05:14:07;;;;;;;6.03;2.00;;;;;;;;;;5039856;28;20564;-62
2024/01/18 05:16:38;;;;;;;5.80;1.83;;;;;;;;;;5040727;28;20530;-62
2024/01/18 05:19:03;;;;;;;5.00;1.88;;;;;;;;;;5039574;28;20713;-62
2024/01/18 05:21:29;;;;;;;5.27;1.60;;;;;;;;;;5040432;28;20394;-62
2024/01/18 05:23:54;;;;;;;4.70;1.50;;;;;;;;;;5022554;28;20403;-62
2024/01/18 05:26:19;;;;;;;4.93;1.70;;;;;;;;;;5018379;28;20418;-62
2024/01/18 05:28:44;;;;;;;4.67;1.87;;;;;;;;;;5013337;28;20770;-62
2024/01/18 05:31:10;;;;;;;3.97;1.73;;;;;;;;;;5032832;28;20404;-62
2024/01/18 05:33:35;;;;;;;4.93;1.65;;;;;;;;;;5050313;28;20390;-62
2024/01/18 05:36:01;;;;;;;4.93;1.80;;;;;;;;;;5050352;28;20398;-62
2024/01/18 05:38:26;;;;;;;5.17;2.00;;;;;;;;;;5051017;28;20454;-62
2024/01/18 05:40:51;;;;;;;5.43;1.80;;;;;;;;;;5050429;28;20477;-62
2024/01/18 05:43:17;;;;;;;5.40;1.77;;;;;;;;;;5050477;28;20900;-62
2024/01/18 05:45:42;;;;;;;4.13;1.57;;;;;;;;;;5024274;28;20407;-62
2024/01/18 05:48:07;;;;;;;5.07;1.87;;;;;;;;;;5012075;28;20522;-62
2024/01/18 05:50:32;;;;;;;5.47;1.90;;;;;;;;;;5020010;28;20403;-62
2024/01/18 05:52:58;;;;;;;4.30;1.50;;;;;;;;;;5021659;28;20942;-62
2024/01/18 05:55:24;;;;;;;5.35;1.67;;;;;;;;;;5019758;28;20436;-62
2024/01/18 05:57:49;;;;;;;4.43;1.60;;;;;;;;;;5021011;28;20921;-62
2024/01/18 06:00:14;;;;;;;3.85;1.40;;;;;;;;;;5020180;28;20399;-62
2024/01/18 06:02:40;;;;;;;3.07;1.40;;;;;;;;;;5021961;28;20403;-62
2024/01/18 06:05:06;;;;;;;3.90;1.40;;;;;;;;;;5015736;28;20399;-63
2024/01/18 06:07:32;;;;;;;5.22;1.80;;;;;;;;;;5012787;28;20407;-62
2024/01/18 06:09:59;;;;;;;4.45;1.58;;;;;;;;;;5011752;28;20833;-62
2024/01/18 06:12:24;;;;;;;6.13;1.80;;;;;;;;;;5016922;28;20391;-62
2024/01/18 06:14:50;;;;;;;4.37;1.40;;;;;;;;;;5020713;28;20406;-62
2024/01/18 06:17:15;;;;;;;6.77;1.90;;;;;;;;;;5019352;28;20415;-62
2024/01/18 06:19:41;;;;;;;3.58;1.30;;;;;;;;;;5020802;28;20391;-63
2024/01/18 06:22:06;;;;;;;4.63;1.40;;;;;;;;;;5002174;28;20494;-62
2024/01/18 06:24:32;;;;;;;3.70;1.17;;;;;;;;;;5019953;28;20413;-62
2024/01/18 06:26:57;;;;;;;3.87;1.10;;;;;;;;;;5017741;28;20894;-62
2024/01/18 06:29:26;;;;;;;3.53;1.10;;;;;;;;;;5011465;28;20402;-62
2024/01/18 06:31:52;;;;;;;5.40;1.25;;;;;;;;;;5023344;28;21251;-62
2024/01/18 06:34:17;;;;;;;4.28;1.20;;;;;;;;;;5014789;28;20399;-62
2024/01/18 06:36:43;;;;;;;3.67;1.43;;;;;;;;;;5019877;28;20410;-62
2024/01/18 06:39:08;;;;;;;4.27;1.20;;;;;;;;;;5039004;28;20841;-62
2024/01/18 06:41:34;;;;;;;5.25;1.20;;;;;;;;;;5024321;28;20407;-62
2024/01/18 06:43:59;;;;;;;5.67;1.27;;;;;;;;;;5024143;28;20482;-62
2024/01/18 06:46:24;;;;;;;3.83;1.50;;;;;;;;;;5023265;28;20916;-62
2024/01/18 06:48:52;;;;;;;3.70;1.37;;;;;;;;;;5023595;28;20906;-62
2024/01/18 06:51:18;;;;;;;6.20;1.52;;;;;;;;;;5031714;28;20407;-62
2024/01/18 06:53:44;;;;;;;4.10;1.42;;;;;;;;;;5015951;28;20464;-62
2024/01/18 06:56:11;;;;;;;4.63;1.70;;;;;;;;;;5015866;28;20781;-62
2024/01/18 06:58:36;;;;;;;5.18;1.70;;;;;;;;;;5024261;28;20848;-62
2024/01/18 07:01:02;;;;;;;5.60;2.10;;;;;;;;;;5038386;28;20403;-63
2024/01/18 07:03:30;;;;;;;4.73;1.60;;;;;;;;;;5025544;28;20443;-62
2024/01/18 07:05:55;;;;;;;5.50;1.90;;;;;;;;;;5035885;28;20808;-61
2024/01/18 07:08:20;;;;;;;5.07;1.75;;;;;;;;;;5053158;28;20377;-63
2024/01/18 07:10:48;;;;;;;5.73;1.80;;;;;;;;;;5053318;28;20385;-64
2024/01/18 07:13:13;;;;;;;5.78;1.95;;;;;;;;;;5052069;28;20451;-64
2024/01/18 07:15:38;;;;;;;6.85;2.13;;;;;;;;;;5053223;28;20753;-64
2024/01/18 07:18:04;;;;;;;5.40;2.10;;;;;;;;;;5035027;28;20492;-64
2024/01/18 07:20:29;;;;;;;5.30;2.10;;;;;;;;;;5052426;28;20467;-64
2024/01/18 07:22:55;;;;;;;6.50;2.00;;;;;;;;;;5052926;28;20827;-64
2024/01/18 07:25:21;;;;;;;5.18;2.10;;;;;;;;;;5052602;28;20868;-64
2024/01/18 07:27:47;;;;;;;4.40;2.10;;;;;;;;;;5052407;28;20424;-64
2024/01/18 07:30:14;;;;;;;7.27;2.50;;;;;;;;;;5052893;28;20385;-64
2024/01/18 07:32:39;;;;;;;7.10;2.10;;;;;;;;;;5052483;28;20394;-64
2024/01/18 07:35:05;;;;;;;6.30;1.92;;;;;;;;;;5052582;28;20396;-64
2024/01/18 07:37:30;;;;;;;5.03;1.80;;;;;;;;;;5051934;28;20472;-63
2024/01/18 07:39:55;;;;;;;6.27;2.07;;;;;;;;;;5052071;28;20470;-63
2024/01/18 07:42:20;;;;;;;4.37;1.90;;;;;;;;;;5051842;28;20390;-63
2024/01/18 07:44:47;;;;;;;5.90;2.10;;;;;;;;;;5052486;28;20405;-64
2024/01/18 07:47:12;;;;;;;5.65;1.90;;;;;;;;;;5051092;28;20429;-64
2024/01/18 07:49:42;;;;;;;6.82;2.05;;;;;;;;;;5051420;28;20796;-64
2024/01/18 07:52:08;;;;;;;6.50;1.92;;;;;;;;;;5049123;28;20781;-65
2024/01/18 07:54:33;;;;;;;7.23;1.93;;;;;;;;;;5051546;28;20447;-64
2024/01/18 07:56:58;;;;;;;5.80;2.07;;;;;;;;;;5052378;28;20413;-64
2024/01/18 07:59:24;;;;;;;6.00;1.97;;;;;;;;;;5051707;28;20405;-64
2024/01/18 08:01:49;;;;;;;6.03;2.10;;;;;;;;;;5051293;28;20477;-63
2024/01/18 08:04:15;;;;;;;5.65;1.90;;;;;;;;;;5051693;28;20402;-64
2024/01/18 08:06:42;;;;;;;5.60;2.10;;;;;;;;;;5052189;28;20393;-64
2024/01/18 08:09:08;;;;;;;5.70;2.03;;;;;;;;;;5051230;28;20962;-64
2024/01/18 08:11:33;;;;;;;5.20;2.00;;;;;;;;;;5051676;28;20401;-64
2024/01/18 08:13:58;;;;;;;7.20;2.67;;;;;;;;;;5049385;28;20405;-65
2024/01/18 08:16:23;;;;;;;7.13;2.73;;;;;;;;;;5050852;28;20436;-63
2024/01/18 08:18:49;;;;;;;6.43;1.90;;;;;;;;;;5034230;28;20398;-62
2024/01/18 08:21:14;;;;;;;5.70;2.30;;;;;;;;;;5051239;28;20484;-63
2024/01/18 08:23:39;;;;;;;9.25;3.50;;;;;;;;;;5051348;28;20901;-62
2024/01/18 08:26:06;;;;;;;6.33;3.10;;;;;;;;;;5051683;28;20397;-62
2024/01/18 08:28:32;;;;;;;7.13;3.80;;;;;;;;;;5051468;28;20428;-62
2024/01/18 08:30:57;;;;;;;6.97;4.30;;;;;;;;;;5050524;28;20908;-62
2024/01/18 08:33:23;;;;;;;13.77;9.05;;;;;;;;;;5067358;28;20411;-62
2024/01/18 08:35:48;;;;;;;10.40;6.50;;;;;;;;;;5050549;28;20408;-61
2024/01/18 08:38:13;;;;;;;13.07;8.83;;;;;;;;;;5050832;28;20482;-62
2024/01/18 08:40:38;;;;;;;13.60;9.77;;;;;;;;;;5051904;28;20436;-62
2024/01/18 08:43:04;;;;;;;9.60;6.00;;;;;;;;;;5050379;28;20795;-62
2024/01/18 08:45:29;;;;;;;6.90;2.93;;;;;;;;;;5051603;28;20390;-62
2024/01/18 08:47:55;;;;;;;5.70;2.00;;;;;;;;;;5051617;28;20420;-62
2024/01/18 08:50:23;;;;;;;5.87;1.87;;;;;;;;;;5050476;28;20390;-62
2024/01/18 08:52:51;;;;;;;5.90;2.25;;;;;;;;;;5051520;28;20427;-62
2024/01/18 08:55:16;;;;;;;11.07;5.33;;;;;;;;;;5051144;28;20560;-62
2024/01/18 08:57:41;;;;;;;7.40;2.70;;;;;;;;;;5050255;28;20480;-62
2024/01/18 09:00:07;;;;;;;5.87;2.00;;;;;;;;;;5051019;28;20889;-62
2024/01/18 09:02:32;;;;;;;7.10;2.57;;;;;;;;;;5051438;28;20427;-62
2024/01/18 09:04:58;;;;;;;6.00;2.40;;;;;;;;;;5050583;28;20889;-62
2024/01/18 09:07:24;;;;;;;4.82;1.88;;;;;;;;;;5048961;28;20447;-62
2024/01/18 09:09:49;;;;;;;4.87;1.77;;;;;;;;;;5032554;28;20451;-62
2024/01/18 09:12:15;;;;;;;5.87;1.67;;;;;;;;;;5050195;28;20792;-62
2024/01/18 09:14:40;;;;;;;5.70;1.73;;;;;;;;;;5050960;28;20400;-62
2024/01/18 09:17:06;;;;;;;5.47;1.60;;;;;;;;;;5050654;28;20398;-62
2024/01/18 09:19:31;;;;;;;4.47;1.50;;;;;;;;;;5050432;28;20397;-62
2024/01/18 09:21:57;;;;;;;3.87;1.50;;;;;;;;;;5050526;28;20421;-62
2024/01/18 09:24:22;;;;;;;6.53;1.90;;;;;;;;;;5049573;28;20396;-62
2024/01/18 09:26:47;;;;;;;8.50;5.18;;;;;;;;;;5049892;28;20827;-62
2024/01/18 09:29:13;;;;;;;4.47;1.60;;;;;;;;;;5050020;28;20941;-62
2024/01/18 09:31:38;;;;;;;5.20;1.40;;;;;;;;;;5060529;28;20372;-62
2024/01/18 09:34:04;;;;;;;4.60;1.30;;;;;;;;;;5069636;28;20407;-63
2024/01/18 09:36:29;;;;;;;2.83;1.20;;;;;;;;;;5051037;28;20464;-62
2024/01/18 09:38:54;;;;;;;7.33;3.10;;;;;;;;;;5050345;28;20409;-62
2024/01/18 09:41:19;;;;;;;6.67;1.80;;;;;;;;;;5048830;28;23069;-62
2024/01/18 09:43:45;;;;;;;25.30;13.35;;;;;;;;;;5050577;28;20406;-62
2024/01/18 09:46:11;;;;;;;6.00;2.20;;;;;;;;;;5029379;28;20518;-62
2024/01/18 09:48:37;;;;;;;4.15;1.42;;;;;;;;;;5031343;28;20744;-62
2024/01/18 09:51:03;;;;;;;5.80;1.67;;;;;;;;;;5050040;28;20393;-62
2024/01/18 09:53:28;;;;;;;4.45;1.50;;;;;;;;;;5032347;28;21094;-62
2024/01/18 09:55:54;;;;;;;3.97;1.67;;;;;;;;;;5032302;28;20431;-62
2024/01/18 09:58:19;;;;;;;4.60;1.30;;;;;;;;;;5049877;28;20800;-62
2024/01/18 10:00:50;;;;;;;5.43;1.52;;;;;;;;;;5032207;28;20405;-62
2024/01/18 10:03:15;;;;;;;3.90;1.30;;;;;;;;;;5030411;28;20402;-62
2024/01/18 10:05:42;;;;;;;4.87;1.47;;;;;;;;;;5031949;28;20397;-63
2024/01/18 10:08:07;;;;;;;3.83;1.35;;;;;;;;;;5048404;28;20413;-62
2024/01/18 10:10:32;;;;;;;4.30;1.30;;;;;;;;;;5050389;28;20415;-62
2024/01/18 10:12:58;;;;;;;4.77;1.40;;;;;;;;;;5052175;28;20462;-62
2024/01/18 10:15:32;;;;;;;3.92;1.42;;;;;;;;;;5053346;28;20389;-62
2024/01/18 10:17:58;;;;;;;3.92;1.20;;;;;;;;;;5054544;28;20397;-62
2024/01/18 10:20:23;;;;;;;5.20;1.50;;;;;;;;;;5054087;28;20378;-62
2024/01/18 10:22:49;;;;;;;4.07;1.27;;;;;;;;;;5053579;28;20448;-62
2024/01/18 10:25:14;;;;;;;3.47;1.30;;;;;;;;;;5053713;28;20884;-62
2024/01/18 10:27:42;;;;;;;4.05;1.20;;;;;;;;;;5054044;28;20405;-62
2024/01/18 10:30:08;;;;;;;4.25;1.30;;;;;;;;;;5053059;28;20401;-63
2024/01/18 10:32:33;;;;;;;4.95;1.73;;;;;;;;;;5054235;28;20393;-63
2024/01/18 10:34:59;;;;;;;3.17;1.37;;;;;;;;;;5036241;28;20397;-63
2024/01/18 10:37:24;;;;;;;4.80;1.80;;;;;;;;;;5052870;28;20850;-62
2024/01/18 10:39:49;;;;;;;3.80;1.70;;;;;;;;;;5035336;28;20863;-62
2024/01/18 10:42:14;;;;;;;4.17;1.80;;;;;;;;;;5035448;28;20405;-62
2024/01/18 10:44:40;;;;;;;2.90;1.80;;;;;;;;;;5035827;28;20389;-62
2024/01/18 10:47:07;;;;;;;5.47;2.20;;;;;;;;;;5053059;28;20432;-63
2024/01/18 10:49:33;;;;;;;6.50;2.40;;;;;;;;;;5053553;28;20868;-62
2024/01/18 10:51:58;;;;;;;5.70;2.40;;;;;;;;;;5036594;28;20762;-62
2024/01/18 10:54:24;;;;;;;6.90;2.60;;;;;;;;;;5053333;28;20959;-62
2024/01/18 10:56:49;;;;;;;5.20;2.10;;;;;;;;;;5052847;28;20402;-62
2024/01/18 10:59:15;;;;;;;4.53;1.80;;;;;;;;;;5053353;28;20405;-62
2024/01/18 11:01:40;;;;;;;4.32;1.65;;;;;;;;;;5053466;28;20405;-62
2024/01/18 11:04:05;;;;;;;5.17;1.77;;;;;;;;;;5052624;28;20808;-62
2024/01/18 11:06:30;;;;;;;5.20;1.70;;;;;;;;;;5035797;28;20440;-62
2024/01/18 11:08:56;;;;;;;4.73;1.60;;;;;;;;;;5035668;28;20409;-62
2024/01/18 11:11:21;;;;;;;5.00;1.60;;;;;;;;;;5052357;28;20388;-62
2024/01/18 11:13:46;;;;;;;3.57;1.50;;;;;;;;;;5035488;28;20409;-62
2024/01/18 11:16:12;;;;;;;4.93;1.53;;;;;;;;;;5052739;28;20405;-62
2024/01/18 11:18:38;;;;;;;5.57;1.50;;;;;;;;;;5052521;28;20394;-62
2024/01/18 11:21:04;;;;;;;4.18;1.40;;;;;;;;;;5053032;28;20392;-62
2024/01/18 11:23:33;;;;;;;4.03;1.30;;;;;;;;;;5035293;28;20420;-62
2024/01/18 11:25:59;;;;;;;4.70;1.23;;;;;;;;;;5052671;28;20409;-62
2024/01/18 11:28:25;;;;;;;5.47;1.50;;;;;;;;;;5052150;28;20397;-62
2024/01/18 11:30:50;;;;;;;4.35;1.40;;;;;;;;;;5052580;28;20397;-62
2024/01/18 11:33:16;;;;;;;5.20;1.70;;;;;;;;;;5034317;28;20484;-62
2024/01/18 11:35:41;;;;;;;4.47;1.80;;;;;;;;;;5052716;28;20484;-62
2024/01/18 11:38:31;;;;;;;5.07;1.67;;;;;;;;;;5052399;28;20919;-62
2024/01/18 11:40:56;;;;;;;3.97;1.50;;;;;;;;;;5052247;28;20512;-62
2024/01/18 11:43:23;;;;;;;3.77;1.40;;;;;;;;;;5051896;28;20468;-62
2024/01/18 11:45:49;;;;;;;4.80;1.40;;;;;;;;;;5052270;28;20539;-63
2024/01/18 11:48:15;;;;;;;4.78;1.33;;;;;;;;;;5052039;28;20421;-62
2024/01/18 11:50:40;;;;;;;6.60;1.70;;;;;;;;;;5052245;28;20451;-63
2024/01/18 11:53:06;;;;;;;3.58;1.50;;;;;;;;;;5051989;28;20884;-63
2024/01/18 11:55:32;;;;;;;4.20;1.30;;;;;;;;;;5052959;28;20381;-63
2024/01/18 11:58:01;;;;;;;5.25;1.45;;;;;;;;;;5052057;28;20425;-63
2024/01/18 12:00:26;;;;;;;4.88;1.42;;;;;;;;;;5034861;28;20384;-62
2024/01/18 12:02:52;;;;;;;4.47;1.50;;;;;;;;;;5015125;28;20403;-63
2024/01/18 12:05:17;;;;;;;5.87;1.60;;;;;;;;;;5035134;28;20405;-63
2024/01/18 12:07:44;;;;;;;3.67;1.20;;;;;;;;;;5049607;28;20397;-64
2024/01/18 12:10:09;;;;;;;5.28;1.52;;;;;;;;;;5053832;28;20392;-63
2024/01/18 12:12:35;;;;;;;3.33;1.03;;;;;;;;;;5066509;28;20470;-63
2024/01/18 12:15:00;;;;;;;3.30;1.10;;;;;;;;;;5049234;28;20408;-65
2024/01/18 12:17:25;;;;;;;3.85;0.95;;;;;;;;;;5051480;28;20405;-64
2024/01/18 12:19:51;;;;;;;5.17;1.20;;;;;;;;;;5051814;28;20886;-63
2024/01/18 12:22:17;;;;;;;3.33;1.07;;;;;;;;;;5051087;28;20443;-63
2024/01/18 12:24:42;;;;;;;3.20;1.10;;;;;;;;;;5050933;28;20808;-63
2024/01/18 12:27:07;;;;;;;3.30;1.20;;;;;;;;;;5050752;28;20421;-64
2024/01/18 12:29:33;;;;;;;4.20;1.30;;;;;;;;;;5033414;28;20443;-63
2024/01/18 12:31:59;;;;;;;5.22;1.70;;;;;;;;;;5033917;28;20923;-63
2024/01/18 12:34:24;;;;;;;4.20;1.50;;;;;;;;;;5033738;28;20394;-63
2024/01/18 12:36:50;;;;;;;4.70;1.73;;;;;;;;;;5050827;28;20443;-63
2024/01/18 12:39:17;;;;;;;5.73;1.90;;;;;;;;;;5051163;28;20496;-64
2024/01/18 12:41:43;;;;;;;5.70;1.80;;;;;;;;;;5050681;28;20485;-63
2024/01/18 12:44:09;;;;;;;4.53;1.80;;;;;;;;;;5050348;28;20854;-64
2024/01/18 12:46:35;;;;;;;5.38;1.50;;;;;;;;;;5051154;28;20416;-63
2024/01/18 12:49:00;;;;;;;5.93;1.50;;;;;;;;;;5051090;28;20489;-63
2024/01/18 12:51:26;;;;;;;4.88;1.80;;;;;;;;;;5051350;28;20390;-63
2024/01/18 12:53:51;;;;;;;5.22;1.70;;;;;;;;;;5051377;28;20508;-63
2024/01/18 12:56:17;;;;;;;6.27;1.83;;;;;;;;;;5050071;28;20476;-63
2024/01/18 12:58:42;;;;;;;5.50;1.77;;;;;;;;;;5033262;28;20400;-63
2024/01/18 13:01:08;;;;;;;3.43;1.43;;;;;;;;;;5050396;28;20385;-64
2024/01/18 13:03:33;;;;;;;5.72;1.80;;;;;;;;;;5050772;28;20467;-63
2024/01/18 13:05:59;;;;;;;6.53;1.60;;;;;;;;;;5050731;28;20409;-63
2024/01/18 13:08:24;;;;;;;5.90;1.57;;;;;;;;;;5031604;28;20390;-63
2024/01/18 13:10:49;;;;;;;5.57;1.63;;;;;;;;;;5032730;28;20412;-62
2024/01/18 13:13:15;;;;;;;7.27;2.20;;;;;;;;;;5049921;28;20455;-63
2024/01/18 13:15:40;;;;;;;5.22;1.70;;;;;;;;;;5050836;28;20468;-62
2024/01/18 13:18:07;;;;;;;5.67;1.60;;;;;;;;;;5049102;28;20401;-63
2024/01/18 13:20:32;;;;;;;3.67;1.50;;;;;;;;;;5033117;28;20389;-64
2024/01/18 13:22:57;;;;;;;5.32;1.55;;;;;;;;;;5050536;28;20421;-63
2024/01/18 13:25:23;;;;;;;5.13;1.80;;;;;;;;;;5067715;28;20806;-63
2024/01/18 13:27:48;;;;;;;5.60;1.80;;;;;;;;;;5070358;28;20404;-64
2024/01/18 13:30:13;;;;;;;4.27;1.60;;;;;;;;;;5070459;28;20396;-63
2024/01/18 13:32:39;;;;;;;4.90;1.50;;;;;;;;;;5070482;28;20388;-64
2024/01/18 13:35:04;;;;;;;4.50;1.53;;;;;;;;;;5070491;28;20404;-63
2024/01/18 13:37:29;;;;;;;5.27;1.60;;;;;;;;;;5056991;28;20737;-63
2024/01/18 13:39:55;;;;;;;5.00;1.30;;;;;;;;;;5050456;28;20425;-63
2024/01/18 13:42:20;;;;;;;7.00;1.37;;;;;;;;;;5049917;28;20459;-63
2024/01/18 13:44:45;;;;;;;4.77;1.30;;;;;;;;;;5050318;28;20443;-63
2024/01/18 13:47:10;;;;;;;3.83;1.17;;;;;;;;;;5048735;28;20436;-63
2024/01/18 13:49:37;;;;;;;4.07;1.03;;;;;;;;;;5050302;28;20401;-61
2024/01/18 13:52:02;;;;;;;3.72;1.20;;;;;;;;;;5050060;28;20464;-63
2024/01/18 13:54:28;;;;;;;3.40;1.10;;;;;;;;;;5050408;28;20986;-62
2024/01/18 13:56:53;;;;;;;2.57;1.10;;;;;;;;;;5050188;28;20409;-64
2024/01/18 13:59:19;;;;;;;3.40;0.90;;;;;;;;;;5049816;28;20395;-62
2024/01/18 14:01:45;;;;;;;4.47;1.30;;;;;;;;;;5049996;28;20413;-62
2024/01/18 14:04:10;;;;;;;4.53;1.10;;;;;;;;;;5050078;28;20401;-62
2024/01/18 14:06:36;;;;;;;4.53;0.95;;;;;;;;;;5049798;28;20451;-62
2024/01/18 14:09:02;;;;;;;4.00;1.10;;;;;;;;;;5049973;28;20421;-62
2024/01/18 14:11:28;;;;;;;5.47;1.05;;;;;;;;;;5050127;28;20401;-62
2024/01/18 14:13:53;;;;;;;4.77;1.00;;;;;;;;;;5049754;28;20472;-61
2024/01/18 14:16:18;;;;;;;3.07;1.10;;;;;;;;;;5049826;28;20405;-61
2024/01/18 14:18:43;;;;;;;4.33;1.10;;;;;;;;;;5032492;28;20393;-62
2024/01/18 14:21:09;;;;;;;5.17;1.20;;;;;;;;;;5049570;28;20401;-62
2024/01/18 14:23:35;;;;;;;4.43;1.60;;;;;;;;;;5050039;28;20412;-62
2024/01/18 14:26:00;;;;;;;3.55;1.20;;;;;;;;;;5049971;28;20450;-61
2024/01/18 14:28:26;;;;;;;5.53;1.40;;;;;;;;;;5049324;28;20784;-61
2024/01/18 14:30:51;;;;;;;3.00;0.85;;;;;;;;;;5047415;28;20386;-61